sensor_id;sensor_type;location;lat;lon;timestamp;temperature;humidity
6758;DHT22;3416;53.074;8.822;2023-05-10T00:01:15;17.30;92.10
6758;DHT22;3416;53.074;8.822;2023-05-10T00:03:42;17.30;91.60
6758;DHT22;3416;53.074;8.822;2023-05-10T00:06:08;17.30;91.40
6758;DHT22;3416;53.074;8.822;2023-05-10T00:08:36;17.30;90.90
6758;DHT22;3416;53.074;8.822;2023-05-10T00:11:03;17.30;91.30
6758;DHT22;3416;53.074;8.822;2023-05-10T00:13:31;17.20;91.10
6758;DHT22;3416;53.074;8.822;2023-05-10T00:15:58;17.30;90.70
6758;DHT22;3416;53.074;8.822;2023-05-10T00:18:26;17.30;90.60
6758;DHT22;3416;53.074;8.822;2023-05-10T00:20:53;17.30;90.50
6758;DHT22;3416;53.074;8.822;2023-05-10T00:23:19;17.30;90.20
6758;DHT22;3416;53.074;8.822;2023-05-10T00:25:46;17.20;89.90
6758;DHT22;3416;53.074;8.822;2023-05-10T00:28:13;17.20;90.20
6758;DHT22;3416;53.074;8.822;2023-05-10T00:30:40;17.30;89.60
6758;DHT22;3416;53.074;8.822;2023-05-10T00:33:07;17.20;89.40
6758;DHT22;3416;53.074;8.822;2023-05-10T00:35:35;17.20;89.10
6758;DHT22;3416;53.074;8.822;2023-05-10T00:38:03;17.20;89.20
6758;DHT22;3416;53.074;8.822;2023-05-10T00:40:30;17.10;89.30
6758;DHT22;3416;53.074;8.822;2023-05-10T00:42:57;17.20;89.10
6758;DHT22;3416;53.074;8.822;2023-05-10T00:45:24;17.20;88.40
6758;DHT22;3416;53.074;8.822;2023-05-10T00:47:52;17.20;88.50
6758;DHT22;3416;53.074;8.822;2023-05-10T00:50:20;17.10;88.40
6758;DHT22;3416;53.074;8.822;2023-05-10T00:52:49;17.10;88.70
6758;DHT22;3416;53.074;8.822;2023-05-10T00:55:16;17.00;88.80
6758;DHT22;3416;53.074;8.822;2023-05-10T00:57:44;17.00;89.30
6758;DHT22;3416;53.074;8.822;2023-05-10T01:00:12;16.90;89.50
6758;DHT22;3416;53.074;8.822;2023-05-10T01:02:43;16.90;89.50
6758;DHT22;3416;53.074;8.822;2023-05-10T01:05:10;16.90;89.80
6758;DHT22;3416;53.074;8.822;2023-05-10T01:07:38;16.90;89.40
6758;DHT22;3416;53.074;8.822;2023-05-10T01:10:07;16.90;89.60
6758;DHT22;3416;53.074;8.822;2023-05-10T01:12:37;16.80;89.50
6758;DHT22;3416;53.074;8.822;2023-05-10T01:15:06;16.70;89.90
6758;DHT22;3416;53.074;8.822;2023-05-10T01:17:34;16.70;90.10
6758;DHT22;3416;53.074;8.822;2023-05-10T01:20:01;16.70;89.70
6758;DHT22;3416;53.074;8.822;2023-05-10T01:22:48;16.70;89.90
6758;DHT22;3416;53.074;8.822;2023-05-10T01:25:35;16.60;90.00
6758;DHT22;3416;53.074;8.822;2023-05-10T01:28:22;16.60;90.00
6758;DHT22;3416;53.074;8.822;2023-05-10T01:31:08;16.50;89.90
6758;DHT22;3416;53.074;8.822;2023-05-10T01:33:43;16.60;90.00
6758;DHT22;3416;53.074;8.822;2023-05-10T01:36:17;16.50;90.00
6758;DHT22;3416;53.074;8.822;2023-05-10T01:38:55;16.50;90.30
6758;DHT22;3416;53.074;8.822;2023-05-10T01:41:28;16.50;90.40
6758;DHT22;3416;53.074;8.822;2023-05-10T01:44:05;16.40;90.40
6758;DHT22;3416;53.074;8.822;2023-05-10T01:46:37;16.40;90.40
6758;DHT22;3416;53.074;8.822;2023-05-10T01:49:08;16.40;90.50
6758;DHT22;3416;53.074;8.822;2023-05-10T01:51:40;16.40;90.50
6758;DHT22;3416;53.074;8.822;2023-05-10T01:54:10;16.40;90.50
6758;DHT22;3416;53.074;8.822;2023-05-10T01:56:39;16.40;90.60
6758;DHT22;3416;53.074;8.822;2023-05-10T01:59:12;16.40;91.00
6758;DHT22;3416;53.074;8.822;2023-05-10T02:01:40;16.40;90.60
6758;DHT22;3416;53.074;8.822;2023-05-10T02:04:09;16.40;90.90
6758;DHT22;3416;53.074;8.822;2023-05-10T02:06:39;16.30;90.80
6758;DHT22;3416;53.074;8.822;2023-05-10T02:09:07;16.40;90.70
6758;DHT22;3416;53.074;8.822;2023-05-10T02:11:35;16.30;90.80
6758;DHT22;3416;53.074;8.822;2023-05-10T02:14:06;16.20;90.90
6758;DHT22;3416;53.074;8.822;2023-05-10T02:16:35;16.20;91.10
6758;DHT22;3416;53.074;8.822;2023-05-10T02:19:03;16.20;91.20
6758;DHT22;3416;53.074;8.822;2023-05-10T02:21:33;16.20;91.30
6758;DHT22;3416;53.074;8.822;2023-05-10T02:24:01;16.10;91.20
6758;DHT22;3416;53.074;8.822;2023-05-10T02:26:31;16.10;91.50
6758;DHT22;3416;53.074;8.822;2023-05-10T02:29:01;16.10;91.80
6758;DHT22;3416;53.074;8.822;2023-05-10T02:31:30;16.00;91.80
6758;DHT22;3416;53.074;8.822;2023-05-10T02:33:59;16.00;92.10
6758;DHT22;3416;53.074;8.822;2023-05-10T02:36:27;16.00;92.20
6758;DHT22;3416;53.074;8.822;2023-05-10T02:38:56;16.00;92.10
6758;DHT22;3416;53.074;8.822;2023-05-10T02:41:24;15.80;92.50
6758;DHT22;3416;53.074;8.822;2023-05-10T02:43:56;15.80;92.60
6758;DHT22;3416;53.074;8.822;2023-05-10T02:46:24;15.80;92.70
6758;DHT22;3416;53.074;8.822;2023-05-10T02:48:51;15.80;92.40
6758;DHT22;3416;53.074;8.822;2023-05-10T02:51:19;15.80;92.50
6758;DHT22;3416;53.074;8.822;2023-05-10T02:53:51;15.80;92.40
6758;DHT22;3416;53.074;8.822;2023-05-10T02:56:25;15.80;92.60
6758;DHT22;3416;53.074;8.822;2023-05-10T02:58:55;15.70;93.10
6758;DHT22;3416;53.074;8.822;2023-05-10T03:01:22;15.70;93.70
6758;DHT22;3416;53.074;8.822;2023-05-10T03:03:49;15.70;94.40
6758;DHT22;3416;53.074;8.822;2023-05-10T03:06:17;15.50;95.20
6758;DHT22;3416;53.074;8.822;2023-05-10T03:08:44;15.40;95.90
6758;DHT22;3416;53.074;8.822;2023-05-10T03:11:31;15.40;96.20
6758;DHT22;3416;53.074;8.822;2023-05-10T03:14:10;15.40;96.30
6758;DHT22;3416;53.074;8.822;2023-05-10T03:16:42;15.40;96.30
6758;DHT22;3416;53.074;8.822;2023-05-10T03:19:15;15.30;96.70
6758;DHT22;3416;53.074;8.822;2023-05-10T03:21:49;15.40;96.20
6758;DHT22;3416;53.074;8.822;2023-05-10T03:24:20;15.30;96.10
6758;DHT22;3416;53.074;8.822;2023-05-10T03:27:11;15.40;96.40
6758;DHT22;3416;53.074;8.822;2023-05-10T03:29:39;15.30;95.90
6758;DHT22;3416;53.074;8.822;2023-05-10T03:32:06;15.30;96.20
6758;DHT22;3416;53.074;8.822;2023-05-10T03:34:33;15.30;96.30
6758;DHT22;3416;53.074;8.822;2023-05-10T03:37:01;15.30;96.50
6758;DHT22;3416;53.074;8.822;2023-05-10T03:39:28;15.40;97.00
6758;DHT22;3416;53.074;8.822;2023-05-10T03:41:55;15.40;97.70
6758;DHT22;3416;53.074;8.822;2023-05-10T03:44:23;15.40;97.20
6758;DHT22;3416;53.074;8.822;2023-05-10T03:46:50;15.40;98.00
6758;DHT22;3416;53.074;8.822;2023-05-10T03:49:18;15.40;98.30
6758;DHT22;3416;53.074;8.822;2023-05-10T03:51:45;15.40;98.90
6758;DHT22;3416;53.074;8.822;2023-05-10T03:54:12;15.40;98.40
6758;DHT22;3416;53.074;8.822;2023-05-10T03:56:38;15.40;98.50
6758;DHT22;3416;53.074;8.822;2023-05-10T03:59:05;15.40;97.90
6758;DHT22;3416;53.074;8.822;2023-05-10T04:01:35;15.30;97.80
6758;DHT22;3416;53.074;8.822;2023-05-10T04:04:02;15.30;98.60
6758;DHT22;3416;53.074;8.822;2023-05-10T04:06:29;15.10;99.30
6758;DHT22;3416;53.074;8.822;2023-05-10T04:08:57;15.10;99.20
6758;DHT22;3416;53.074;8.822;2023-05-10T04:11:25;15.10;99.90
6758;DHT22;3416;53.074;8.822;2023-05-10T04:13:52;15.00;99.90
6758;DHT22;3416;53.074;8.822;2023-05-10T04:16:20;14.90;99.90
6758;DHT22;3416;53.074;8.822;2023-05-10T04:18:48;14.80;99.90
6758;DHT22;3416;53.074;8.822;2023-05-10T04:21:16;14.80;99.90
6758;DHT22;3416;53.074;8.822;2023-05-10T04:23:42;14.80;99.90
6758;DHT22;3416;53.074;8.822;2023-05-10T04:26:10;14.70;99.90
6758;DHT22;3416;53.074;8.822;2023-05-10T04:28:37;14.60;99.90
6758;DHT22;3416;53.074;8.822;2023-05-10T04:31:05;14.70;99.90
6758;DHT22;3416;53.074;8.822;2023-05-10T04:33:32;14.70;99.90
6758;DHT22;3416;53.074;8.822;2023-05-10T04:36:01;14.70;99.90
6758;DHT22;3416;53.074;8.822;2023-05-10T04:38:30;14.80;99.90
6758;DHT22;3416;53.074;8.822;2023-05-10T04:41:04;14.70;99.90
6758;DHT22;3416;53.074;8.822;2023-05-10T04:43:31;14.70;99.90
6758;DHT22;3416;53.074;8.822;2023-05-10T04:45:58;14.70;99.90
6758;DHT22;3416;53.074;8.822;2023-05-10T04:48:25;14.60;99.90
6758;DHT22;3416;53.074;8.822;2023-05-10T04:50:52;14.40;99.90
6758;DHT22;3416;53.074;8.822;2023-05-10T04:53:20;14.30;99.90
6758;DHT22;3416;53.074;8.822;2023-05-10T04:55:47;14.10;99.90
6758;DHT22;3416;53.074;8.822;2023-05-10T04:58:14;14.10;99.90
6758;DHT22;3416;53.074;8.822;2023-05-10T05:00:41;14.10;99.90
6758;DHT22;3416;53.074;8.822;2023-05-10T05:03:09;14.20;99.90
6758;DHT22;3416;53.074;8.822;2023-05-10T05:05:37;14.30;99.90
6758;DHT22;3416;53.074;8.822;2023-05-10T05:08:04;14.30;99.90
6758;DHT22;3416;53.074;8.822;2023-05-10T05:10:32;14.20;99.90
6758;DHT22;3416;53.074;8.822;2023-05-10T05:12:59;14.10;99.90
6758;DHT22;3416;53.074;8.822;2023-05-10T05:15:26;14.10;99.90
6758;DHT22;3416;53.074;8.822;2023-05-10T05:17:53;13.90;99.90
6758;DHT22;3416;53.074;8.822;2023-05-10T05:20:27;13.90;99.90
6758;DHT22;3416;53.074;8.822;2023-05-10T05:22:54;13.90;99.90
6758;DHT22;3416;53.074;8.822;2023-05-10T05:25:21;13.90;99.90
6758;DHT22;3416;53.074;8.822;2023-05-10T05:27:49;13.80;99.90
6758;DHT22;3416;53.074;8.822;2023-05-10T05:30:16;13.80;99.90
6758;DHT22;3416;53.074;8.822;2023-05-10T05:32:43;13.90;99.90
6758;DHT22;3416;53.074;8.822;2023-05-10T05:35:12;14.00;99.90
6758;DHT22;3416;53.074;8.822;2023-05-10T05:37:39;14.00;99.90
6758;DHT22;3416;53.074;8.822;2023-05-10T05:40:07;14.00;99.90
6758;DHT22;3416;53.074;8.822;2023-05-10T05:42:34;13.90;99.90
6758;DHT22;3416;53.074;8.822;2023-05-10T05:45:03;13.80;99.90
6758;DHT22;3416;53.074;8.822;2023-05-10T05:47:30;13.80;99.90
6758;DHT22;3416;53.074;8.822;2023-05-10T05:49:57;13.80;99.90
6758;DHT22;3416;53.074;8.822;2023-05-10T05:52:24;13.80;99.90
6758;DHT22;3416;53.074;8.822;2023-05-10T05:54:51;13.80;99.90
6758;DHT22;3416;53.074;8.822;2023-05-10T05:57:18;13.80;99.90
6758;DHT22;3416;53.074;8.822;2023-05-10T05:59:45;13.70;99.90
6758;DHT22;3416;53.074;8.822;2023-05-10T06:02:13;13.70;99.90
6758;DHT22;3416;53.074;8.822;2023-05-10T06:04:40;13.60;99.90
6758;DHT22;3416;53.074;8.822;2023-05-10T06:07:07;13.70;99.90
6758;DHT22;3416;53.074;8.822;2023-05-10T06:09:34;13.70;99.90
6758;DHT22;3416;53.074;8.822;2023-05-10T06:12:01;13.60;99.90
6758;DHT22;3416;53.074;8.822;2023-05-10T06:14:28;13.50;99.90
6758;DHT22;3416;53.074;8.822;2023-05-10T06:16:55;13.50;99.90
6758;DHT22;3416;53.074;8.822;2023-05-10T06:19:23;13.40;99.90
6758;DHT22;3416;53.074;8.822;2023-05-10T06:21:51;13.40;99.90
6758;DHT22;3416;53.074;8.822;2023-05-10T06:24:18;13.40;99.90
6758;DHT22;3416;53.074;8.822;2023-05-10T06:26:45;13.40;99.90
6758;DHT22;3416;53.074;8.822;2023-05-10T06:29:12;13.30;99.90
6758;DHT22;3416;53.074;8.822;2023-05-10T06:31:40;13.30;99.90
6758;DHT22;3416;53.074;8.822;2023-05-10T06:34:07;13.40;99.90
6758;DHT22;3416;53.074;8.822;2023-05-10T06:36:36;13.30;99.90
6758;DHT22;3416;53.074;8.822;2023-05-10T06:39:03;13.30;99.90
6758;DHT22;3416;53.074;8.822;2023-05-10T06:41:29;13.30;99.90
6758;DHT22;3416;53.074;8.822;2023-05-10T06:43:56;13.30;99.90
6758;DHT22;3416;53.074;8.822;2023-05-10T06:46:23;13.30;99.90
6758;DHT22;3416;53.074;8.822;2023-05-10T06:48:50;13.40;99.90
6758;DHT22;3416;53.074;8.822;2023-05-10T06:51:18;13.40;99.90
6758;DHT22;3416;53.074;8.822;2023-05-10T06:53:48;13.40;99.90
6758;DHT22;3416;53.074;8.822;2023-05-10T06:56:14;13.50;99.90
6758;DHT22;3416;53.074;8.822;2023-05-10T06:58:41;13.60;99.90
6758;DHT22;3416;53.074;8.822;2023-05-10T07:01:08;13.80;99.90
6758;DHT22;3416;53.074;8.822;2023-05-10T07:03:35;14.00;99.90
6758;DHT22;3416;53.074;8.822;2023-05-10T07:06:03;14.10;99.90
6758;DHT22;3416;53.074;8.822;2023-05-10T07:08:30;14.20;99.90
6758;DHT22;3416;53.074;8.822;2023-05-10T07:11:02;14.30;99.90
6758;DHT22;3416;53.074;8.822;2023-05-10T07:13:30;14.30;99.90
6758;DHT22;3416;53.074;8.822;2023-05-10T07:15:58;14.40;99.90
6758;DHT22;3416;53.074;8.822;2023-05-10T07:18:25;14.50;99.90
6758;DHT22;3416;53.074;8.822;2023-05-10T07:20:52;14.60;99.90
6758;DHT22;3416;53.074;8.822;2023-05-10T07:23:19;14.70;99.90
6758;DHT22;3416;53.074;8.822;2023-05-10T07:25:46;14.60;99.90
6758;DHT22;3416;53.074;8.822;2023-05-10T07:28:15;14.60;99.90
6758;DHT22;3416;53.074;8.822;2023-05-10T07:30:42;14.60;99.90
6758;DHT22;3416;53.074;8.822;2023-05-10T07:33:12;14.70;99.90
6758;DHT22;3416;53.074;8.822;2023-05-10T07:35:39;14.80;99.90
6758;DHT22;3416;53.074;8.822;2023-05-10T07:38:06;15.00;99.90
6758;DHT22;3416;53.074;8.822;2023-05-10T07:40:33;15.20;99.90
6758;DHT22;3416;53.074;8.822;2023-05-10T07:43:00;15.40;99.90
6758;DHT22;3416;53.074;8.822;2023-05-10T07:45:29;15.40;99.90
6758;DHT22;3416;53.074;8.822;2023-05-10T07:47:56;15.30;99.90
6758;DHT22;3416;53.074;8.822;2023-05-10T07:50:23;15.20;99.90
6758;DHT22;3416;53.074;8.822;2023-05-10T07:52:50;15.00;99.90
6758;DHT22;3416;53.074;8.822;2023-05-10T07:55:18;14.90;99.90
6758;DHT22;3416;53.074;8.822;2023-05-10T07:57:46;14.90;99.90
6758;DHT22;3416;53.074;8.822;2023-05-10T08:00:18;14.90;99.90
6758;DHT22;3416;53.074;8.822;2023-05-10T08:02:47;14.90;99.90
6758;DHT22;3416;53.074;8.822;2023-05-10T08:05:14;15.10;99.90
6758;DHT22;3416;53.074;8.822;2023-05-10T08:07:41;15.30;99.90
6758;DHT22;3416;53.074;8.822;2023-05-10T08:10:10;15.50;99.90
6758;DHT22;3416;53.074;8.822;2023-05-10T08:12:38;15.70;99.90
6758;DHT22;3416;53.074;8.822;2023-05-10T08:15:06;15.80;99.90
6758;DHT22;3416;53.074;8.822;2023-05-10T08:17:33;15.80;99.90
6758;DHT22;3416;53.074;8.822;2023-05-10T08:20:01;15.90;99.90
6758;DHT22;3416;53.074;8.822;2023-05-10T08:22:28;15.90;99.90
6758;DHT22;3416;53.074;8.822;2023-05-10T08:24:56;16.00;99.90
6758;DHT22;3416;53.074;8.822;2023-05-10T08:27:23;16.10;99.90
6758;DHT22;3416;53.074;8.822;2023-05-10T08:29:51;16.20;99.90
6758;DHT22;3416;53.074;8.822;2023-05-10T08:32:18;16.30;99.90
6758;DHT22;3416;53.074;8.822;2023-05-10T08:34:46;16.50;99.90
6758;DHT22;3416;53.074;8.822;2023-05-10T08:37:14;16.40;99.90
6758;DHT22;3416;53.074;8.822;2023-05-10T08:39:42;16.50;99.90
6758;DHT22;3416;53.074;8.822;2023-05-10T08:42:09;16.60;99.90
6758;DHT22;3416;53.074;8.822;2023-05-10T08:44:36;16.70;99.90
6758;DHT22;3416;53.074;8.822;2023-05-10T08:47:05;16.80;99.90
6758;DHT22;3416;53.074;8.822;2023-05-10T08:49:33;16.60;99.90
6758;DHT22;3416;53.074;8.822;2023-05-10T08:52:03;16.60;99.90
6758;DHT22;3416;53.074;8.822;2023-05-10T08:54:33;16.40;99.90
6758;DHT22;3416;53.074;8.822;2023-05-10T08:57:01;16.50;99.90
6758;DHT22;3416;53.074;8.822;2023-05-10T08:59:28;16.60;99.90
6758;DHT22;3416;53.074;8.822;2023-05-10T09:02:06;17.00;99.90
6758;DHT22;3416;53.074;8.822;2023-05-10T09:04:35;17.40;99.90
6758;DHT22;3416;53.074;8.822;2023-05-10T09:07:02;17.70;99.90
6758;DHT22;3416;53.074;8.822;2023-05-10T09:09:29;18.10;99.90
6758;DHT22;3416;53.074;8.822;2023-05-10T09:11:59;18.70;99.90
6758;DHT22;3416;53.074;8.822;2023-05-10T09:14:26;19.20;99.90
6758;DHT22;3416;53.074;8.822;2023-05-10T09:16:55;19.40;99.90
6758;DHT22;3416;53.074;8.822;2023-05-10T09:19:22;19.20;99.90
6758;DHT22;3416;53.074;8.822;2023-05-10T09:21:49;19.30;99.90
6758;DHT22;3416;53.074;8.822;2023-05-10T09:24:16;19.70;99.90
6758;DHT22;3416;53.074;8.822;2023-05-10T09:26:47;20.10;99.90
6758;DHT22;3416;53.074;8.822;2023-05-10T09:29:17;20.30;99.90
6758;DHT22;3416;53.074;8.822;2023-05-10T09:31:46;20.60;99.90
6758;DHT22;3416;53.074;8.822;2023-05-10T09:34:18;20.10;99.90
6758;DHT22;3416;53.074;8.822;2023-05-10T09:36:54;19.50;99.90
6758;DHT22;3416;53.074;8.822;2023-05-10T09:39:30;18.90;99.90
6758;DHT22;3416;53.074;8.822;2023-05-10T09:41:58;18.50;99.90
6758;DHT22;3416;53.074;8.822;2023-05-10T09:44:27;18.00;99.90
6758;DHT22;3416;53.074;8.822;2023-05-10T09:46:53;18.10;99.90
6758;DHT22;3416;53.074;8.822;2023-05-10T09:49:21;18.20;99.90
6758;DHT22;3416;53.074;8.822;2023-05-10T09:52:01;18.20;99.90
6758;DHT22;3416;53.074;8.822;2023-05-10T09:54:28;18.20;99.90
6758;DHT22;3416;53.074;8.822;2023-05-10T09:56:55;18.20;99.90
6758;DHT22;3416;53.074;8.822;2023-05-10T09:59:25;18.00;99.90
6758;DHT22;3416;53.074;8.822;2023-05-10T10:01:55;17.80;99.90
6758;DHT22;3416;53.074;8.822;2023-05-10T10:04:23;17.80;99.90
6758;DHT22;3416;53.074;8.822;2023-05-10T10:06:59;17.70;99.90
6758;DHT22;3416;53.074;8.822;2023-05-10T10:09:26;18.00;99.90
6758;DHT22;3416;53.074;8.822;2023-05-10T10:11:54;18.30;99.90
6758;DHT22;3416;53.074;8.822;2023-05-10T10:14:21;18.50;99.90
6758;DHT22;3416;53.074;8.822;2023-05-10T10:16:49;18.30;99.90
6758;DHT22;3416;53.074;8.822;2023-05-10T10:19:18;18.10;99.90
6758;DHT22;3416;53.074;8.822;2023-05-10T10:21:45;18.00;99.90
6758;DHT22;3416;53.074;8.822;2023-05-10T10:24:14;17.80;99.90
6758;DHT22;3416;53.074;8.822;2023-05-10T10:26:42;17.20;99.90
6758;DHT22;3416;53.074;8.822;2023-05-10T10:29:19;16.90;99.90
6758;DHT22;3416;53.074;8.822;2023-05-10T10:31:55;16.80;99.90
6758;DHT22;3416;53.074;8.822;2023-05-10T10:34:28;16.60;99.90
6758;DHT22;3416;53.074;8.822;2023-05-10T10:36:56;16.60;99.90
6758;DHT22;3416;53.074;8.822;2023-05-10T10:39:24;16.80;99.90
6758;DHT22;3416;53.074;8.822;2023-05-10T10:41:52;17.30;99.90
6758;DHT22;3416;53.074;8.822;2023-05-10T10:44:33;18.00;99.90
6758;DHT22;3416;53.074;8.822;2023-05-10T10:47:07;18.50;99.90
6758;DHT22;3416;53.074;8.822;2023-05-10T10:49:48;19.10;99.90
6758;DHT22;3416;53.074;8.822;2023-05-10T10:52:22;19.30;99.90
6758;DHT22;3416;53.074;8.822;2023-05-10T10:54:52;19.50;99.90
6758;DHT22;3416;53.074;8.822;2023-05-10T10:57:22;19.80;99.90
6758;DHT22;3416;53.074;8.822;2023-05-10T10:59:49;20.00;99.90
6758;DHT22;3416;53.074;8.822;2023-05-10T11:02:43;20.00;99.90
6758;DHT22;3416;53.074;8.822;2023-05-10T11:05:33;20.10;99.90
6758;DHT22;3416;53.074;8.822;2023-05-10T11:08:07;19.70;99.90
6758;DHT22;3416;53.074;8.822;2023-05-10T11:10:37;19.50;99.90
6758;DHT22;3416;53.074;8.822;2023-05-10T11:13:06;19.40;99.90
6758;DHT22;3416;53.074;8.822;2023-05-10T11:15:34;19.40;99.90
6758;DHT22;3416;53.074;8.822;2023-05-10T11:18:16;19.50;99.90
6758;DHT22;3416;53.074;8.822;2023-05-10T11:20:50;19.50;99.90
6758;DHT22;3416;53.074;8.822;2023-05-10T11:23:17;19.40;99.90
6758;DHT22;3416;53.074;8.822;2023-05-10T11:25:46;19.40;99.90
6758;DHT22;3416;53.074;8.822;2023-05-10T11:28:14;19.40;99.90
6758;DHT22;3416;53.074;8.822;2023-05-10T11:30:43;19.40;99.90
6758;DHT22;3416;53.074;8.822;2023-05-10T11:33:15;19.40;99.90
6758;DHT22;3416;53.074;8.822;2023-05-10T11:35:44;19.40;99.90
6758;DHT22;3416;53.074;8.822;2023-05-10T11:38:12;19.50;99.90
6758;DHT22;3416;53.074;8.822;2023-05-10T11:40:42;19.80;99.90
6758;DHT22;3416;53.074;8.822;2023-05-10T11:43:09;20.00;99.90
6758;DHT22;3416;53.074;8.822;2023-05-10T11:45:38;20.20;99.90
6758;DHT22;3416;53.074;8.822;2023-05-10T11:48:06;19.90;99.90
6758;DHT22;3416;53.074;8.822;2023-05-10T11:50:33;19.80;99.90
6758;DHT22;3416;53.074;8.822;2023-05-10T11:53:02;19.60;99.90
6758;DHT22;3416;53.074;8.822;2023-05-10T11:55:29;19.40;99.90
6758;DHT22;3416;53.074;8.822;2023-05-10T11:58:02;19.40;99.90
6758;DHT22;3416;53.074;8.822;2023-05-10T12:00:29;19.50;99.90
6758;DHT22;3416;53.074;8.822;2023-05-10T12:02:58;19.00;99.90
6758;DHT22;3416;53.074;8.822;2023-05-10T12:05:25;18.50;99.90
6758;DHT22;3416;53.074;8.822;2023-05-10T12:08:12;18.20;99.90
6758;DHT22;3416;53.074;8.822;2023-05-10T12:10:39;17.70;99.90
6758;DHT22;3416;53.074;8.822;2023-05-10T12:13:10;17.50;99.90
6758;DHT22;3416;53.074;8.822;2023-05-10T12:15:37;17.40;99.90
6758;DHT22;3416;53.074;8.822;2023-05-10T12:18:05;17.30;99.90
6758;DHT22;3416;53.074;8.822;2023-05-10T12:20:34;17.40;99.90
6758;DHT22;3416;53.074;8.822;2023-05-10T12:23:02;17.60;99.90
6758;DHT22;3416;53.074;8.822;2023-05-10T12:25:31;17.70;99.90
6758;DHT22;3416;53.074;8.822;2023-05-10T12:28:02;17.90;99.90
6758;DHT22;3416;53.074;8.822;2023-05-10T12:30:30;17.90;99.90
6758;DHT22;3416;53.074;8.822;2023-05-10T12:33:00;17.80;99.90
6758;DHT22;3416;53.074;8.822;2023-05-10T12:35:30;17.60;99.90
6758;DHT22;3416;53.074;8.822;2023-05-10T12:37:57;17.50;99.90
6758;DHT22;3416;53.074;8.822;2023-05-10T12:40:24;17.50;99.90
6758;DHT22;3416;53.074;8.822;2023-05-10T12:42:53;17.50;99.90
6758;DHT22;3416;53.074;8.822;2023-05-10T12:45:19;17.80;99.90
6758;DHT22;3416;53.074;8.822;2023-05-10T12:47:47;17.90;99.90
6758;DHT22;3416;53.074;8.822;2023-05-10T12:50:14;17.90;99.90
6758;DHT22;3416;53.074;8.822;2023-05-10T12:52:41;17.70;99.90
6758;DHT22;3416;53.074;8.822;2023-05-10T12:55:08;17.50;99.90
6758;DHT22;3416;53.074;8.822;2023-05-10T12:57:35;17.20;99.90
6758;DHT22;3416;53.074;8.822;2023-05-10T13:00:04;17.10;99.90
6758;DHT22;3416;53.074;8.822;2023-05-10T13:02:34;17.10;99.90
6758;DHT22;3416;53.074;8.822;2023-05-10T13:05:01;17.20;99.90
6758;DHT22;3416;53.074;8.822;2023-05-10T13:07:28;17.30;99.90
6758;DHT22;3416;53.074;8.822;2023-05-10T13:09:55;17.60;99.90
6758;DHT22;3416;53.074;8.822;2023-05-10T13:12:22;17.80;99.90
6758;DHT22;3416;53.074;8.822;2023-05-10T13:14:48;18.00;99.90
6758;DHT22;3416;53.074;8.822;2023-05-10T13:17:17;17.90;99.90
6758;DHT22;3416;53.074;8.822;2023-05-10T13:19:43;17.90;99.90
6758;DHT22;3416;53.074;8.822;2023-05-10T13:22:10;17.90;99.90
6758;DHT22;3416;53.074;8.822;2023-05-10T13:24:37;17.80;99.90
6758;DHT22;3416;53.074;8.822;2023-05-10T13:27:04;17.80;99.90
6758;DHT22;3416;53.074;8.822;2023-05-10T13:29:31;18.00;99.90
6758;DHT22;3416;53.074;8.822;2023-05-10T13:31:58;18.40;99.90
6758;DHT22;3416;53.074;8.822;2023-05-10T13:34:27;18.80;99.90
6758;DHT22;3416;53.074;8.822;2023-05-10T13:36:54;19.20;99.90
6758;DHT22;3416;53.074;8.822;2023-05-10T13:39:21;19.50;99.90
6758;DHT22;3416;53.074;8.822;2023-05-10T13:41:48;19.40;99.90
6758;DHT22;3416;53.074;8.822;2023-05-10T13:44:16;19.30;99.90
6758;DHT22;3416;53.074;8.822;2023-05-10T13:46:43;19.30;99.90
6758;DHT22;3416;53.074;8.822;2023-05-10T13:49:10;19.20;99.90
6758;DHT22;3416;53.074;8.822;2023-05-10T13:51:38;19.10;99.90
6758;DHT22;3416;53.074;8.822;2023-05-10T13:54:05;19.00;99.90
6758;DHT22;3416;53.074;8.822;2023-05-10T13:56:32;18.90;99.90
6758;DHT22;3416;53.074;8.822;2023-05-10T13:58:59;19.00;99.90
6758;DHT22;3416;53.074;8.822;2023-05-10T14:01:26;18.90;99.90
6758;DHT22;3416;53.074;8.822;2023-05-10T14:03:53;19.00;99.90
6758;DHT22;3416;53.074;8.822;2023-05-10T14:06:20;19.10;99.90
6758;DHT22;3416;53.074;8.822;2023-05-10T14:08:48;18.90;99.90
6758;DHT22;3416;53.074;8.822;2023-05-10T14:11:15;18.80;99.90
6758;DHT22;3416;53.074;8.822;2023-05-10T14:13:43;18.70;99.90
6758;DHT22;3416;53.074;8.822;2023-05-10T14:16:10;18.50;99.90
6758;DHT22;3416;53.074;8.822;2023-05-10T14:18:37;18.70;99.90
6758;DHT22;3416;53.074;8.822;2023-05-10T14:21:04;18.90;99.90
6758;DHT22;3416;53.074;8.822;2023-05-10T14:23:31;18.90;99.90
6758;DHT22;3416;53.074;8.822;2023-05-10T14:25:59;19.10;99.90
6758;DHT22;3416;53.074;8.822;2023-05-10T14:28:27;19.40;99.90
6758;DHT22;3416;53.074;8.822;2023-05-10T14:30:54;19.80;99.90
6758;DHT22;3416;53.074;8.822;2023-05-10T14:33:21;20.30;99.90
6758;DHT22;3416;53.074;8.822;2023-05-10T14:35:48;20.60;99.90
6758;DHT22;3416;53.074;8.822;2023-05-10T14:38:15;20.90;99.90
6758;DHT22;3416;53.074;8.822;2023-05-10T14:40:42;21.00;99.90
6758;DHT22;3416;53.074;8.822;2023-05-10T14:43:10;21.20;99.90
6758;DHT22;3416;53.074;8.822;2023-05-10T14:45:37;21.10;99.90
6758;DHT22;3416;53.074;8.822;2023-05-10T14:48:04;21.10;99.90
6758;DHT22;3416;53.074;8.822;2023-05-10T14:50:31;21.10;99.90
6758;DHT22;3416;53.074;8.822;2023-05-10T14:52:58;21.00;99.90
6758;DHT22;3416;53.074;8.822;2023-05-10T14:55:25;21.10;99.90
6758;DHT22;3416;53.074;8.822;2023-05-10T14:57:52;21.00;99.90
6758;DHT22;3416;53.074;8.822;2023-05-10T15:00:21;20.70;99.90
6758;DHT22;3416;53.074;8.822;2023-05-10T15:02:48;20.30;99.90
6758;DHT22;3416;53.074;8.822;2023-05-10T15:05:15;19.90;99.90
6758;DHT22;3416;53.074;8.822;2023-05-10T15:07:42;19.60;99.90
6758;DHT22;3416;53.074;8.822;2023-05-10T15:10:11;19.20;99.90
6758;DHT22;3416;53.074;8.822;2023-05-10T15:12:39;19.10;99.90
6758;DHT22;3416;53.074;8.822;2023-05-10T15:15:07;19.10;99.90
6758;DHT22;3416;53.074;8.822;2023-05-10T15:17:35;18.80;99.90
6758;DHT22;3416;53.074;8.822;2023-05-10T15:20:04;18.70;99.90
6758;DHT22;3416;53.074;8.822;2023-05-10T15:22:32;18.70;99.90
6758;DHT22;3416;53.074;8.822;2023-05-10T15:24:59;18.80;99.90
6758;DHT22;3416;53.074;8.822;2023-05-10T15:27:26;18.80;99.90
6758;DHT22;3416;53.074;8.822;2023-05-10T15:29:53;18.70;99.90
6758;DHT22;3416;53.074;8.822;2023-05-10T15:32:20;18.70;99.90
6758;DHT22;3416;53.074;8.822;2023-05-10T15:34:49;18.70;99.90
6758;DHT22;3416;53.074;8.822;2023-05-10T15:37:16;18.80;99.90
6758;DHT22;3416;53.074;8.822;2023-05-10T15:39:43;18.90;99.90
6758;DHT22;3416;53.074;8.822;2023-05-10T15:42:10;19.10;99.90
6758;DHT22;3416;53.074;8.822;2023-05-10T15:44:37;19.10;99.90
6758;DHT22;3416;53.074;8.822;2023-05-10T15:47:04;19.30;99.90
6758;DHT22;3416;53.074;8.822;2023-05-10T15:49:32;19.50;99.90
6758;DHT22;3416;53.074;8.822;2023-05-10T15:52:01;19.40;99.90
6758;DHT22;3416;53.074;8.822;2023-05-10T15:54:28;19.30;99.90
6758;DHT22;3416;53.074;8.822;2023-05-10T15:56:56;19.30;99.90
6758;DHT22;3416;53.074;8.822;2023-05-10T15:59:24;19.40;99.90
6758;DHT22;3416;53.074;8.822;2023-05-10T16:01:51;19.30;99.90
6758;DHT22;3416;53.074;8.822;2023-05-10T16:04:18;19.10;99.90
6758;DHT22;3416;53.074;8.822;2023-05-10T16:06:45;18.90;99.90
6758;DHT22;3416;53.074;8.822;2023-05-10T16:09:13;18.90;99.90
6758;DHT22;3416;53.074;8.822;2023-05-10T16:11:42;18.90;99.90